Decoded Metar for PAVC (KING COVE in AK, USA) (IATA:N/A) | Meteo·Mobile Aviation Weather
aviador You're here:

PAVC Decoded Metar

KING COVE in AK, USA
Report Time2018-11-18 18:56:00
UTC Time2018-11-18 19:09:21
Flight Rules vfr VFR
Wind240° at 12 kt
W.Decomp.*RWY 25: 11.0 kt HW 4.9 kt LCW
W.Rank240° ranks 7
Current wind is above 240° avg. (11.6)
Visibility9999 m
Phenomena:N/A
Clouds:Few 029 Hf
Overcast 110 Hf
Expected CloudBase > 1,200 ft AGL from Temp-Dew spread
Ceiling11,000 ft
Temp04°C (ISA -11)
Dew Point01°C (81% RH)
AAT-2.1°C
QNH1002 hPa
Density Alt-673 ft
Elevation154 ft
Report Wrong Elevation
Raw Report
PAVC 181856Z AUTO 24012KT 10SM FEW029 OVC110 04/01 A2958 RMK AO2
RAE30 SLP020 P0000 T00440006=

Extra information for PAVC:More info

Metar Taf Metar & Taf Last 4 Metars F.Rules Stats Wind Profile Meteogram Temp Stats Airport Information Weather charts Add Link Nearby VenuesMetar ALERT Operation Metar Decoded Social comments

AIRNAV info for PAVC